createdAt,value
2018-02-23T00:01:21.972Z,10.10
2018-02-23T00:03:51.922Z,10.00
2018-02-23T00:06:20.716Z,10.00
2018-02-23T00:08:49.565Z,10.00
2018-02-23T00:11:19.368Z,10.10
2018-02-23T00:13:48.801Z,10.10
2018-02-23T00:16:18.444Z,10.10
2018-02-23T00:18:47.501Z,10.10
2018-02-23T00:21:17.196Z,10.10
2018-02-23T00:23:46.169Z,10.10
2018-02-23T00:26:16.060Z,10.10
2018-02-23T00:28:45.053Z,10.00
2018-02-23T00:31:14.429Z,10.10
2018-02-23T00:33:43.632Z,10.10
2018-02-23T00:36:12.448Z,10.10
2018-02-23T00:38:42.293Z,10.10
2018-02-23T00:41:11.363Z,10.00
2018-02-23T00:43:40.212Z,10.10
2018-02-23T00:46:09.041Z,10.00
2018-02-23T00:48:37.918Z,10.00
2018-02-23T00:51:06.715Z,10.00
2018-02-23T00:53:35.713Z,10.00
2018-02-23T00:56:04.596Z,10.00
2018-02-23T00:58:33.652Z,10.00
2018-02-23T01:01:02.561Z,10.00
2018-02-23T01:03:31.406Z,10.00
2018-02-23T01:06:00.973Z,10.00
2018-02-23T01:08:29.842Z,10.00
2018-02-23T01:10:58.727Z,10.00
2018-02-23T01:13:27.657Z,10.10
2018-02-23T01:15:56.572Z,10.10
2018-02-23T01:18:25.525Z,10.10
2018-02-23T01:20:54.617Z,10.10
2018-02-23T01:23:23.513Z,10.10
2018-02-23T01:25:52.318Z,10.10
2018-02-23T01:28:21.396Z,10.10
2018-02-23T01:30:51.063Z,10.10
2018-02-23T01:33:19.967Z,10.10
2018-02-23T01:35:48.829Z,10.10
2018-02-23T01:38:17.981Z,10.10
2018-02-23T01:40:47.588Z,10.20
2018-02-23T01:43:17.344Z,10.20
2018-02-23T01:45:46.192Z,10.10
2018-02-23T01:48:15.365Z,10.10
2018-02-23T01:50:55.964Z,10.10
2018-02-23T01:53:24.852Z,10.10
2018-02-23T01:55:54.717Z,10.10
2018-02-23T01:58:23.795Z,10.10
2018-02-23T02:00:53.692Z,10.10
2018-02-23T02:03:22.638Z,10.10
2018-02-23T02:05:51.533Z,10.10
2018-02-23T02:08:20.581Z,10.10
2018-02-23T02:10:49.464Z,10.10
2018-02-23T02:13:18.237Z,10.10
2018-02-23T02:15:47.144Z,10.10
2018-02-23T02:18:15.983Z,10.00
2018-02-23T02:20:44.801Z,10.00
2018-02-23T02:23:13.841Z,10.10
2018-02-23T02:25:43.029Z,10.10
2018-02-23T02:28:11.878Z,10.10
2018-02-23T02:30:41.801Z,10.10
2018-02-23T02:33:11.581Z,10.00
2018-02-23T02:35:40.398Z,10.00
2018-02-23T02:38:09.394Z,10.00
2018-02-23T02:40:39.000Z,10.00
2018-02-23T02:43:07.983Z,10.00
2018-02-23T02:45:36.886Z,10.00
2018-02-23T02:48:05.765Z,10.00
2018-02-23T02:50:34.685Z,10.00
2018-02-23T02:53:03.732Z,10.00
2018-02-23T02:55:32.638Z,10.00
2018-02-23T02:58:01.752Z,9.90
2018-02-23T03:00:30.888Z,9.90
2018-02-23T03:03:00.034Z,9.80
2018-02-23T03:05:29.188Z,9.80
2018-02-23T03:07:58.149Z,9.80
2018-02-23T03:10:27.732Z,9.80
2018-02-23T03:12:56.577Z,9.80
2018-02-23T03:15:25.628Z,9.70
2018-02-23T03:17:54.545Z,9.70
2018-02-23T03:20:24.332Z,9.70
2018-02-23T03:22:53.413Z,9.70
2018-02-23T03:25:22.569Z,9.70
2018-02-23T03:27:51.378Z,9.70
2018-02-23T03:30:20.265Z,9.80
2018-02-23T03:32:49.153Z,9.80
2018-02-23T03:35:18.300Z,9.70
2018-02-23T03:37:47.873Z,9.80
2018-02-23T03:40:17.000Z,9.80
2018-02-23T03:42:45.861Z,9.70
2018-02-23T03:45:14.781Z,9.70
2018-02-23T03:47:43.914Z,9.70
2018-02-23T03:50:12.788Z,9.70
2018-02-23T03:52:41.881Z,9.70
2018-02-23T03:55:11.419Z,9.70
2018-02-23T03:57:40.185Z,9.60
2018-02-23T04:00:09.122Z,9.70
2018-02-23T04:02:38.220Z,9.60
2018-02-23T04:05:07.184Z,9.70
2018-02-23T04:07:37.126Z,9.70
2018-02-23T04:10:05.976Z,9.70
2018-02-23T04:12:34.888Z,9.80
2018-02-23T04:15:03.841Z,9.80
2018-02-23T04:17:32.957Z,9.80
2018-02-23T04:20:01.829Z,9.80
2018-02-23T04:22:31.561Z,9.80
2018-02-23T04:25:00.461Z,9.70
2018-02-23T04:27:29.363Z,9.80
2018-02-23T04:29:58.311Z,9.80
2018-02-23T04:32:27.170Z,9.80
2018-02-23T04:34:56.037Z,9.80
2018-02-23T04:37:25.107Z,9.80
2018-02-23T04:39:55.016Z,9.80
2018-02-23T04:42:25.173Z,9.80
2018-02-23T04:44:54.520Z,9.70
2018-02-23T04:47:23.413Z,9.80
2018-02-23T04:49:52.332Z,9.80
2018-02-23T04:52:21.285Z,9.80
2018-02-23T04:54:50.214Z,9.90
2018-02-23T04:57:19.808Z,9.90
2018-02-23T04:59:48.716Z,9.90
2018-02-23T05:02:17.640Z,9.90
2018-02-23T05:04:46.523Z,9.90
2018-02-23T05:07:15.413Z,9.90
2018-02-23T05:09:44.336Z,9.90
2018-02-23T05:12:14.046Z,9.80
2018-02-23T05:14:42.964Z,9.80
2018-02-23T05:17:12.120Z,9.80
2018-02-23T05:19:42.102Z,9.90
2018-02-23T05:22:11.416Z,9.90
2018-02-23T05:24:40.760Z,9.90
2018-02-23T05:27:09.673Z,10.00
2018-02-23T05:29:38.589Z,10.00
2018-02-23T05:32:07.513Z,10.00
2018-02-23T05:34:37.488Z,10.10
2018-02-23T05:37:06.452Z,10.00
2018-02-23T05:39:35.636Z,10.00
2018-02-23T05:42:04.489Z,10.00
2018-02-23T05:44:33.392Z,10.00
2018-02-23T05:47:02.690Z,10.10
2018-02-23T05:49:32.355Z,10.10
2018-02-23T05:52:01.283Z,10.00
2018-02-23T05:54:30.177Z,10.10
2018-02-23T05:56:59.110Z,10.10
2018-02-23T05:59:28.737Z,10.10
2018-02-23T06:01:57.922Z,10.10
2018-02-23T06:04:26.856Z,10.00
2018-02-23T06:06:56.748Z,10.00
2018-02-23T06:09:26.666Z,10.10
2018-02-23T06:11:55.708Z,10.00
2018-02-23T06:14:24.829Z,10.10
2018-02-23T06:16:53.780Z,10.10
2018-02-23T06:19:28.377Z,10.10
2018-02-23T06:21:57.263Z,10.10
2018-02-23T06:24:26.342Z,10.10
2018-02-23T06:26:55.229Z,10.10
2018-02-23T06:29:25.004Z,10.10
2018-02-23T06:31:53.877Z,10.10
2018-02-23T06:34:23.092Z,10.10
2018-02-23T06:36:51.953Z,10.20
2018-02-23T06:39:20.836Z,10.20
2018-02-23T06:41:49.769Z,10.20
2018-02-23T06:44:19.462Z,10.20
2018-02-23T06:46:48.617Z,10.30
2018-02-23T06:49:18.570Z,10.30
2018-02-23T06:51:47.380Z,10.30
2018-02-23T06:54:16.288Z,10.40
2018-02-23T06:56:45.318Z,10.30
2018-02-23T06:59:14.628Z,10.30
2018-02-23T07:01:43.684Z,10.30
2018-02-23T07:04:13.308Z,10.40
2018-02-23T07:06:42.505Z,10.40
2018-02-23T07:09:11.482Z,10.40
2018-02-23T07:11:41.216Z,10.40
2018-02-23T07:14:10.297Z,10.40
2018-02-23T07:16:39.218Z,10.50
2018-02-23T07:19:08.201Z,10.50
2018-02-23T07:21:37.106Z,10.60
2018-02-23T07:24:06.006Z,10.60
2018-02-23T07:26:35.166Z,10.70
2018-02-23T07:29:04.066Z,10.70
2018-02-23T07:31:33.341Z,10.80
2018-02-23T07:34:02.997Z,10.90
2018-02-23T07:36:31.978Z,10.90
2018-02-23T07:39:00.898Z,10.90
2018-02-23T07:41:30.612Z,11.00
2018-02-23T07:43:59.570Z,10.90
2018-02-23T07:46:28.504Z,11.00
2018-02-23T07:48:57.581Z,10.80
2018-02-23T07:51:26.777Z,10.80
2018-02-23T07:53:56.453Z,11.00
2018-02-23T07:56:25.426Z,11.00
2018-02-23T07:58:55.260Z,11.00
2018-02-23T08:01:24.221Z,11.00
2018-02-23T08:03:53.977Z,11.00
2018-02-23T08:06:22.957Z,10.90
2018-02-23T08:08:51.906Z,10.90
2018-02-23T08:11:20.785Z,10.90
2018-02-23T08:13:50.649Z,11.00
2018-02-23T08:16:19.820Z,11.00
2018-02-23T08:18:48.933Z,11.00
2018-02-23T08:21:17.854Z,11.00
2018-02-23T08:23:46.709Z,11.00
2018-02-23T08:26:15.911Z,11.00
2018-02-23T08:28:44.853Z,11.00
2018-02-23T08:31:13.703Z,11.10
2018-02-23T08:33:43.360Z,11.00
2018-02-23T08:36:13.002Z,11.00
2018-02-23T08:38:41.973Z,11.00
2018-02-23T08:41:11.920Z,11.00
2018-02-23T08:43:44.101Z,11.00
2018-02-23T08:46:13.322Z,11.00
2018-02-23T08:48:42.216Z,11.10
2018-02-23T08:51:11.168Z,11.10
2018-02-23T08:53:40.136Z,11.10
2018-02-23T08:56:09.845Z,11.20
2018-02-23T08:58:38.714Z,11.20
2018-02-23T09:01:08.754Z,11.20
2018-02-23T09:03:37.687Z,11.20
2018-02-23T09:06:06.526Z,11.20
2018-02-23T09:08:35.743Z,11.30
2018-02-23T09:11:06.234Z,11.30
2018-02-23T09:13:37.313Z,11.30
2018-02-23T09:16:06.697Z,11.30
2018-02-23T09:18:37.259Z,11.40
2018-02-23T09:21:06.924Z,11.50
2018-02-23T09:23:35.969Z,11.40
2018-02-23T09:26:05.078Z,11.50
2018-02-23T09:28:33.944Z,11.50
2018-02-23T09:31:03.587Z,11.60
2018-02-23T09:33:56.244Z,11.60
2018-02-23T09:36:25.043Z,11.60
2018-02-23T09:38:54.066Z,11.60
2018-02-23T09:41:23.006Z,11.70
2018-02-23T09:43:51.873Z,11.70
2018-02-23T09:46:21.687Z,11.70
2018-02-23T09:48:50.565Z,11.70
2018-02-23T09:51:19.564Z,11.80
2018-02-23T09:53:48.497Z,11.80
2018-02-23T09:56:17.466Z,11.80
2018-02-23T09:58:46.313Z,11.80
2018-02-23T10:01:15.961Z,11.80
2018-02-23T10:03:44.917Z,11.70
2018-02-23T10:06:14.913Z,11.80
2018-02-23T10:08:44.030Z,11.80
2018-02-23T10:11:13.040Z,11.80
2018-02-23T10:13:42.041Z,11.80
2018-02-23T10:16:12.091Z,11.90
2018-02-23T10:18:41.085Z,11.90
2018-02-23T10:21:10.025Z,11.90
2018-02-23T10:23:39.795Z,11.90
2018-02-23T10:26:08.712Z,11.90
2018-02-23T10:28:37.642Z,11.90
2018-02-23T10:31:06.543Z,11.90
2018-02-23T10:33:35.521Z,12.00
2018-02-23T10:36:05.257Z,12.00
2018-02-23T10:38:34.237Z,12.00
2018-02-23T10:41:03.298Z,12.10
2018-02-23T10:43:33.105Z,12.20
2018-02-23T10:46:02.792Z,12.30
2018-02-23T10:48:31.898Z,12.20
2018-02-23T10:51:01.729Z,12.20
2018-02-23T10:53:30.635Z,12.20
2018-02-23T10:55:59.545Z,12.20
2018-02-23T10:58:28.744Z,12.30
2018-02-23T11:00:57.702Z,12.30
2018-02-23T11:03:26.614Z,12.40
2018-02-23T11:05:56.353Z,12.40
2018-02-23T11:08:25.293Z,12.40
2018-02-23T11:10:54.562Z,12.60
2018-02-23T11:13:23.503Z,12.70
2018-02-23T11:15:52.617Z,12.80
2018-02-23T11:18:21.885Z,13.00
2018-02-23T11:20:51.479Z,13.00
2018-02-23T11:23:20.521Z,13.00
2018-02-23T11:25:49.528Z,13.00
2018-02-23T11:28:18.462Z,13.00
2018-02-23T11:30:47.434Z,13.20
2018-02-23T11:33:16.442Z,13.20
2018-02-23T11:35:45.385Z,13.30
2018-02-23T11:38:14.522Z,13.30
2018-02-23T11:40:43.315Z,13.50
2018-02-23T11:43:12.349Z,13.40
2018-02-23T11:45:41.986Z,13.60
2018-02-23T11:48:11.596Z,13.70
2018-02-23T11:50:40.476Z,13.70
2018-02-23T11:53:10.117Z,14.00
2018-02-23T11:55:39.260Z,14.00
2018-02-23T11:58:09.815Z,14.20
2018-02-23T12:00:38.985Z,14.20
2018-02-23T12:03:07.889Z,14.20
2018-02-23T12:05:36.776Z,14.30
2018-02-23T12:08:05.927Z,14.40
2018-02-23T12:10:34.829Z,14.40
2018-02-23T12:13:04.444Z,14.60
2018-02-23T12:15:33.390Z,14.60
2018-02-23T12:18:02.334Z,14.70
2018-02-23T12:20:32.678Z,14.70
2018-02-23T12:23:01.668Z,14.70
2018-02-23T12:25:30.747Z,14.60
2018-02-23T12:28:00.426Z,14.60
2018-02-23T12:30:29.770Z,14.60
2018-02-23T12:32:58.583Z,14.40
2018-02-23T12:35:28.343Z,14.30
2018-02-23T12:37:57.936Z,14.40
2018-02-23T12:40:26.813Z,14.40
2018-02-23T12:42:55.702Z,14.40
2018-02-23T12:45:25.393Z,14.30
2018-02-23T12:47:54.349Z,14.30
2018-02-23T12:50:23.325Z,14.20
2018-02-23T12:52:52.979Z,14.10
2018-02-23T12:55:22.449Z,14.10
2018-02-23T12:57:52.045Z,14.00
2018-02-23T13:00:20.923Z,14.00
2018-02-23T13:02:49.776Z,13.90
2018-02-23T13:05:18.684Z,13.80
2018-02-23T13:07:47.578Z,13.80
2018-02-23T13:10:16.683Z,13.80
2018-02-23T13:12:45.560Z,13.80
2018-02-23T13:15:19.398Z,13.80
2018-02-23T13:17:48.245Z,13.80
2018-02-23T13:20:18.160Z,13.90
2018-02-23T13:22:47.026Z,13.80
2018-02-23T13:25:15.983Z,13.90
2018-02-23T13:27:50.512Z,13.90
2018-02-23T13:30:20.190Z,14.00
2018-02-23T13:32:49.970Z,14.10
2018-02-23T13:35:18.940Z,14.10
2018-02-23T13:37:47.792Z,14.00
2018-02-23T13:40:16.668Z,14.00
2018-02-23T13:42:45.739Z,14.00
2018-02-23T13:45:15.682Z,14.00
2018-02-23T13:47:44.758Z,14.00
2018-02-23T13:50:13.802Z,13.90
2018-02-23T13:52:43.568Z,13.70
2018-02-23T13:55:12.501Z,13.70
2018-02-23T13:57:41.594Z,13.80
2018-02-23T14:00:11.644Z,13.80
2018-02-23T14:02:41.533Z,13.60
2018-02-23T14:05:10.662Z,13.50
2018-02-23T14:07:39.614Z,13.50
2018-02-23T14:10:09.360Z,13.30
2018-02-23T14:12:38.297Z,13.30
2018-02-23T14:15:08.170Z,13.10
2018-02-23T14:17:37.181Z,13.10
2018-02-23T14:20:06.047Z,13.00
2018-02-23T14:22:35.093Z,12.80
2018-02-23T14:25:04.351Z,12.80
2018-02-23T14:27:33.315Z,12.70
2018-02-23T14:30:02.557Z,12.70
2018-02-23T14:32:31.555Z,12.70
2018-02-23T14:35:00.663Z,12.70
2018-02-23T14:37:30.376Z,12.50
2018-02-23T14:39:59.321Z,12.50
2018-02-23T14:42:28.990Z,12.40
2018-02-23T14:44:57.977Z,12.30
2018-02-23T14:47:26.886Z,12.30
2018-02-23T14:50:08.475Z,12.20
2018-02-23T14:52:37.270Z,12.10
2018-02-23T14:55:06.224Z,12.10
2018-02-23T14:57:35.082Z,12.10
2018-02-23T15:00:04.092Z,12.10
2018-02-23T15:02:33.013Z,12.10
2018-02-23T15:05:01.941Z,12.00
2018-02-23T15:07:31.143Z,12.00
2018-02-23T15:10:00.071Z,12.00
2018-02-23T15:12:29.707Z,12.00
2018-02-23T15:14:58.661Z,12.00
2018-02-23T15:17:28.521Z,12.00
2018-02-23T15:19:58.400Z,12.00
2018-02-23T15:22:27.310Z,12.00
2018-02-23T15:24:56.192Z,12.00
2018-02-23T15:27:25.359Z,11.90
2018-02-23T15:29:54.333Z,11.90
2018-02-23T15:32:29.833Z,11.90
2018-02-23T15:34:59.720Z,11.90
2018-02-23T15:37:28.773Z,11.80
2018-02-23T15:39:57.685Z,11.90
2018-02-23T15:42:26.665Z,11.90
2018-02-23T15:44:55.669Z,11.90
2018-02-23T15:47:25.269Z,11.80
2018-02-23T15:49:58.086Z,11.80
2018-02-23T15:52:27.044Z,11.80
2018-02-23T15:54:55.968Z,11.70
2018-02-23T15:57:29.128Z,11.70
2018-02-23T15:59:58.052Z,11.70
2018-02-23T16:02:27.014Z,11.80
2018-02-23T16:04:55.946Z,11.70
2018-02-23T16:07:24.935Z,11.70
2018-02-23T16:09:53.924Z,11.70
2018-02-23T16:12:23.411Z,11.70
2018-02-23T16:14:52.246Z,11.70
2018-02-23T16:17:21.181Z,11.60
2018-02-23T16:19:50.861Z,11.60
2018-02-23T16:22:20.500Z,11.50
2018-02-23T16:24:49.388Z,11.50
2018-02-23T16:27:18.321Z,11.50
2018-02-23T16:29:48.123Z,11.30
2018-02-23T16:32:17.140Z,11.30
2018-02-23T16:34:46.100Z,11.30
2018-02-23T16:37:15.142Z,11.20
2018-02-23T16:39:44.789Z,11.00
2018-02-23T16:42:13.829Z,11.00
2018-02-23T16:44:43.503Z,10.90
2018-02-23T16:47:13.284Z,10.90
2018-02-23T16:49:42.985Z,10.80
2018-02-23T16:52:11.937Z,10.80
2018-02-23T16:54:40.958Z,10.80
2018-02-23T16:57:10.843Z,11.00
2018-02-23T16:59:40.753Z,11.00
2018-02-23T17:02:09.680Z,11.00
2018-02-23T17:04:39.833Z,11.00
2018-02-23T17:07:09.742Z,11.10
2018-02-23T17:09:38.736Z,11.10
2018-02-23T17:12:08.540Z,11.10
2018-02-23T17:14:38.184Z,11.10
2018-02-23T17:17:07.081Z,11.10
2018-02-23T17:19:35.925Z,11.10
2018-02-23T17:22:05.510Z,11.00
2018-02-23T17:24:34.716Z,10.90
2018-02-23T17:27:03.832Z,10.90
2018-02-23T17:29:32.979Z,10.80
2018-02-23T17:32:02.003Z,10.80
2018-02-23T17:34:31.633Z,10.80
2018-02-23T17:37:00.976Z,10.80
2018-02-23T17:39:30.211Z,10.80
2018-02-23T17:41:59.121Z,10.80
2018-02-23T17:44:28.203Z,10.80
2018-02-23T17:46:57.147Z,10.70
2018-02-23T17:49:26.034Z,10.70
2018-02-23T17:51:54.966Z,10.70
2018-02-23T17:54:24.004Z,10.70
2018-02-23T17:56:52.982Z,10.70
2018-02-23T17:59:21.974Z,10.70
2018-02-23T18:01:51.725Z,10.60
2018-02-23T18:04:20.584Z,10.60
2018-02-23T18:06:49.443Z,10.60
2018-02-23T18:09:18.451Z,10.60
2018-02-23T18:11:47.798Z,10.60
2018-02-23T18:14:17.168Z,10.50
2018-02-23T18:16:46.265Z,10.50
2018-02-23T18:19:15.187Z,10.50
2018-02-23T18:21:44.550Z,10.50
2018-02-23T18:24:13.414Z,10.50
2018-02-23T18:26:46.546Z,10.50
2018-02-23T18:29:15.635Z,10.40
2018-02-23T18:31:45.315Z,10.40
2018-02-23T18:34:18.043Z,10.40
2018-02-23T18:36:48.529Z,10.40
2018-02-23T18:39:18.836Z,10.40
2018-02-23T18:41:49.385Z,10.40
2018-02-23T18:44:19.485Z,10.40
2018-02-23T18:46:48.995Z,10.50
2018-02-23T18:49:18.400Z,10.40
2018-02-23T18:51:47.848Z,10.40
2018-02-23T18:54:17.187Z,10.40
2018-02-23T18:56:47.307Z,10.30
2018-02-23T18:59:16.647Z,10.30
2018-02-23T19:01:45.977Z,10.30
2018-02-23T19:04:16.042Z,10.30
2018-02-23T19:06:45.422Z,10.30
2018-02-23T19:09:15.813Z,10.30
2018-02-23T19:11:45.133Z,10.30
2018-02-23T19:14:14.509Z,10.30
2018-02-23T19:16:43.767Z,10.20
2018-02-23T19:19:13.305Z,10.30
2018-02-23T19:21:43.069Z,10.20
2018-02-23T19:24:12.854Z,10.20
2018-02-23T19:26:42.242Z,10.20
2018-02-23T19:29:12.001Z,10.20
2018-02-23T19:31:41.382Z,10.30
2018-02-23T19:34:11.047Z,10.30
2018-02-23T19:36:41.496Z,10.30
2018-02-23T19:39:11.614Z,10.30
2018-02-23T19:41:41.395Z,10.30
2018-02-23T19:44:11.414Z,10.20
2018-02-23T19:46:41.754Z,10.30
2018-02-23T19:49:12.462Z,10.30
2018-02-23T19:51:41.964Z,10.30
2018-02-23T19:54:12.061Z,10.30
2018-02-23T19:56:41.753Z,10.20
2018-02-23T19:59:10.962Z,10.20
2018-02-23T20:01:40.270Z,10.20
2018-02-23T20:04:10.113Z,10.20
2018-02-23T20:06:40.297Z,10.00
2018-02-23T20:09:09.791Z,10.00
2018-02-23T20:11:39.032Z,10.00
2018-02-23T20:14:08.369Z,10.00
2018-02-23T20:16:37.643Z,10.00
2018-02-23T20:19:06.773Z,10.00
2018-02-23T20:21:35.958Z,9.90
2018-02-23T20:24:05.237Z,9.90
2018-02-23T20:26:34.541Z,9.90
2018-02-23T20:29:03.928Z,10.00
2018-02-23T20:31:33.783Z,9.90
2018-02-23T20:34:03.298Z,9.90
2018-02-23T20:36:32.424Z,9.80
2018-02-23T20:39:01.562Z,9.80
2018-02-23T20:41:31.660Z,9.80
2018-02-23T20:44:00.816Z,9.80
2018-02-23T20:46:29.689Z,9.80
2018-02-23T20:48:58.869Z,9.90
2018-02-23T20:51:28.099Z,9.80
2018-02-23T20:53:57.693Z,9.80
2018-02-23T20:56:27.025Z,9.80
2018-02-23T20:58:56.701Z,9.70
2018-02-23T21:01:26.024Z,9.70
2018-02-23T21:03:55.337Z,9.70
2018-02-23T21:06:24.832Z,9.60
2018-02-23T21:08:54.369Z,9.60
2018-02-23T21:11:23.507Z,9.70
2018-02-23T21:13:53.263Z,9.60
2018-02-23T21:16:22.134Z,9.60
2018-02-23T21:18:51.815Z,9.70
2018-02-23T21:21:21.549Z,9.70
2018-02-23T21:23:50.457Z,9.70
2018-02-23T21:26:19.370Z,9.70
2018-02-23T21:28:49.001Z,9.60
2018-02-23T21:31:17.868Z,9.60
2018-02-23T21:33:47.544Z,9.50
2018-02-23T21:36:17.311Z,9.40
2018-02-23T21:38:46.241Z,9.40
2018-02-23T21:41:15.333Z,9.50
2018-02-23T21:43:44.435Z,9.50
2018-02-23T21:46:13.543Z,9.50
2018-02-23T21:48:42.381Z,9.60
2018-02-23T21:51:11.457Z,9.50
2018-02-23T21:53:41.245Z,9.50
2018-02-23T21:56:10.580Z,9.50
2018-02-23T21:58:40.269Z,9.60
2018-02-23T22:01:09.173Z,9.50
2018-02-23T22:03:39.005Z,9.50
2018-02-23T22:06:07.884Z,9.50
2018-02-23T22:08:36.884Z,9.50
2018-02-23T22:11:05.900Z,9.50
2018-02-23T22:13:35.008Z,9.50
2018-02-23T22:16:04.763Z,9.50
2018-02-23T22:18:33.591Z,9.50
2018-02-23T22:21:02.573Z,9.40
2018-02-23T22:23:31.644Z,9.40
2018-02-23T22:26:01.305Z,9.40
2018-02-23T22:28:31.110Z,9.40
2018-02-23T22:31:00.001Z,9.40
2018-02-23T22:33:29.434Z,9.40
2018-02-23T22:35:58.394Z,9.40
2018-02-23T22:38:28.072Z,9.40
2018-02-23T22:40:57.053Z,9.40
2018-02-23T22:43:25.953Z,9.40
2018-02-23T22:45:54.881Z,9.40
2018-02-23T22:48:23.650Z,9.30
2018-02-23T22:50:52.516Z,9.40
2018-02-23T22:53:21.619Z,9.50
2018-02-23T22:55:51.225Z,9.40
2018-02-23T22:58:20.131Z,9.40
2018-02-23T23:00:49.171Z,9.40
2018-02-23T23:03:19.156Z,9.50
2018-02-23T23:05:49.872Z,9.50
2018-02-23T23:08:18.721Z,9.50
2018-02-23T23:10:48.413Z,9.40
2018-02-23T23:13:17.444Z,9.40
2018-02-23T23:15:46.405Z,9.40
2018-02-23T23:18:15.480Z,9.40
2018-02-23T23:20:44.659Z,9.30
2018-02-23T23:23:13.548Z,9.30
2018-02-23T23:25:42.504Z,9.20
2018-02-23T23:28:11.376Z,9.10
2018-02-23T23:30:41.307Z,9.10
2018-02-23T23:33:11.033Z,9.00
2018-02-23T23:35:40.087Z,9.00
2018-02-23T23:38:08.911Z,9.00
2018-02-23T23:40:38.561Z,8.90
2018-02-23T23:43:08.422Z,9.00
2018-02-23T23:45:38.248Z,9.00
2018-02-23T23:48:07.134Z,9.00
2018-02-23T23:50:36.890Z,9.00
2018-02-23T23:53:05.782Z,9.00
2018-02-23T23:55:35.456Z,9.00
2018-02-23T23:58:05.101Z,9.00
